Disclaimer

Please do not use the information listed here in-flight or in-navigation, as they are not provided to us by the airports but are provided by volunteers, so they might be outdated.

Search


Regions


Airport information page

Radio informations:
Approach (APP) - 120.1 MHz

Airport informations:
Latitude: 14° 48' 57.47" S
Longitude: 039° 01' 59.51" W
Elevation: 15 feet - 5 meters
Operating hours: 24 hour operations
Operating agency: Civil government, landing fees and diplomatic clearance may be required
Timezone: UTC-3(-2DT)
Fuel: N/A

Runway information:
11/29 - 5174 x 148 feet< - >1577 x 45 meters

Recent METARs:
SBIL 210500Z 08010KT 8000 VCSH FEW015 SCT020 BKN070 27/23 Q1016
SBIL 210500Z 08010KT 8000 VCSH FEW015 SCT020 BKN070 27/23 Q1016
SBIL 210600Z 06008KT 9999 SCT020 SCT040 27/23 Q1015

Airport on the map: